Rancho Penasquitos (500, 13811) Station Data

Red Flag Warning: No
Fire Weather Zone: 250
SDGE Region: North East
Lat/Lon: 32.972/-117.117

Observations

Time Wind Speed/Gust Temp(F) RH Fuel Moist Fuel Temp(F) Dewpt(F) Tmax(F) Tmin(F) Accum Precip 10-min Precip SL Press(mb)
3/29 8:00am 270 1 G 3 63° 39% - - 37° 65.9° 59.1° - - -
3/29 7:50am 112 1 G 3 62° 39% - - 37° 65.9° 59.1° - - -
3/29 7:40am 116 1 G 4 61° 40% - - 37° 65.9° 59.1° - - -
3/29 7:30am 335 3 G 6 60° 40% - - 36° 65.9° 59.1° - - -
3/29 7:20am 316 3 G 5 60° 40% - - 36° 65.9° 59.3° - - -
3/29 7:10am 301 3 G 4 61° 40% - - 36° 65.9° 59.5° - - -
3/29 7:00am 323 3 G 5 63° 34% - - 34° 65.9° 59.5° - - -
3/29 6:50am 1 3 G 4 64° 33% - - 34° 65.9° 59.5° - - -
3/29 6:40am 4 3 G 4 63° 34% - - 34° 65.9° 59.5° - - -
3/29 6:30am 28 5 G 7 64° 34% - - 34° 65.9° 59.5° - - -
3/29 6:20am 22 4 G 5 62° 35% - - 34° 65.9° 59.5° - - -
3/29 6:10am 30 4 G 7 63° 35% - - 36° 65.9° 59.5° - - -
3/29 6:00am 24 3 G 5 62° 38% - - 36° 65.9° 59.5° - - -
3/29 5:50am 39 1 G 3 62° 39% - - 37° 65.9° 59.5° - - -
3/29 5:40am 37 1 G 3 62° 38% - - 36° 65.9° 59.5° - - -
3/29 5:30am 334 3 G 5 62° 38% - - 36° 65.9° 59.5° - - -
3/29 5:20am 353 5 G 7 62° 37% - - 35° 65.9° 59.5° - - -
3/29 5:10am 45 6 G 9 62° 37% - - 35° 65.9° 59.5° - - -
3/29 5:00am 72 5 G 9 62° 36% - - 35° 65.9° 59.5° - - -
3/29 4:50am 24 1 G 3 61° 40% - - 37° 65.9° 59.5° - - -
3/29 4:40am 19 2 G 4 60° 41% - - 36° 65.9° 59.5° - - -
3/29 4:30am 28 2 G 3 63° 37% - - 36° 65.9° 59.5° - - -
3/29 4:20am 24 2 G 5 65° 34% - - 35° 65.9° 59.5° - - -
3/29 4:10am 35 3 G 7 63° 37% - - 36° 65.9° 59.5° - - -
3/29 4:00am 33 6 G 8 63° 39% - - 37° 65.9° 59.5° - - -
3/29 3:50am 35 7 G 9 61° 44% - - 39° 65.9° 59.5° - - -
3/29 3:40am 36 6 G 10 61° 43% - - 39° 65.9° 60.4° - - -
3/29 3:30am 10 4 G 9 64° 33% - - 35° 65.9° 60.8° - - -
3/29 3:20am 27 5 G 6 65° 33% - - 35° 65.9° 60.8° - - -
3/29 3:10am 30 4 G 6 65° 30% - - 33° 65.9° 60.8° - - -
3/29 3:00am 31 3 G 6 65° 30% - - 33° 65.9° 60.8° - - -
3/29 2:50am 34 4 G 6 64° 31% - - 33° 65.8° 60.8° - - -
3/29 2:40am 52 3 G 5 63° 31% - - 32° 65.8° 60.8° - - -
3/29 2:30am 51 2 G 4 63° 31% - - 32° 65.8° 60.8° - - -
3/29 2:20am 25 3 G 7 63° 30% - - 31° 65.8° 60.8° - - -
3/29 2:10am 335 3 G 4 62° 30% - - 31° 65.8° 60.8° - - -
3/29 2:00am 346 3 G 4 63° 29% - - 31° 65.8° 60.8° - - -
3/29 1:50am 40 2 G 4 65° 28% - - 31° 65.8° 60.8° - - -
3/29 1:40am 49 3 G 5 65° 28% - - 31° 65.7° 60.8° - - -
3/29 1:30am 40 3 G 5 64° 32% - - 34° 64.7° 60.8° - - -
3/29 1:20am 39 4 G 5 63° 35% - - 35° 64.6° 60.8° - - -
3/29 1:10am 21 4 G 5 62° 40% - - 37° 63.9° 60.8° - - -
3/29 1:00am 59 5 G 7 62° 40% - - 38° 63.9° 61° - - -
3/29 12:50am 65 8 G 9 62° 41% - - 38° 63.9° 61° - - -
3/29 12:40am 67 8 G 10 63° 37% - - 36° 63.9° 61° - - -
3/29 12:30am 71 6 G 9 62° 38% - - 36° 63.9° 61° - - -
3/29 12:20am 83 5 G 8 62° 39% - - 37° 62.9° 61.2° - - -
3/29 12:10am 87 4 G 5 62° 36% - - 35° 62.9° 61.7° - - -
3/29 12:00am 73 2 G 5 62° 38% - - 36° 68.1° 50.3° - - -
3/28 11:50pm 68 5 G 7 63° 36% - - 36° 68.1° 50.3° - - -
3/28 11:40pm 77 2 G 4 62° 37% - - 36° 68.1° 50.3° - - -
3/28 11:30pm 45 2 G 4 61° 39% - - 36° 68.1° 50.3° - - -
3/28 11:20pm 24 3 G 5 60° 41% - - 37° 68.1° 50.3° - - -
3/28 11:10pm 34 4 G 6 60° 43% - - 38° 68.1° 50.3° - - -
3/28 11:00pm 45 5 G 10 62° 42% - - 38° 68.1° 50.3° - - -
3/28 10:50pm 64 9 G 10 62° 42% - - 39° 68.1° 50.3° - - -
3/28 10:40pm 63 8 G 9 62° 43% - - 39° 68.1° 50.3° - - -
3/28 10:30pm 54 5 G 8 61° 41% - - 37° 68.1° 50.3° - - -
3/28 10:20pm 38 5 G 6 61° 40% - - 37° 68.1° 50.3° - - -
3/28 10:10pm 70 4 G 5 62° 37% - - 35° 68.1° 50.3° - - -
3/28 10:00pm 104 2 G 4 59° 38% - - 34° 68.1° 50.3° - - -
3/28 9:50pm 50 4 G 7 59° 40% - - 35° 68.1° 50.3° - - -
3/28 9:40pm 20 6 G 8 59° 42% - - 36° 68.1° 50.3° - - -
3/28 9:30pm 25 6 G 7 59° 43% - - 36° 68.1° 50.3° - - -
3/28 9:20pm 14 6 G 9 58° 45% - - 37° 68.1° 50.3° - - -
3/28 9:10pm 8 7 G 9 59° 44% - - 37° 68.1° 50.3° - - -
3/28 9:00pm 5 4 G 8 58° 48% - - 39° 68.1° 50.3° - - -
3/28 8:50pm 27 3 G 5 58° 48% - - 39° 68.1° 50.3° - - -
3/28 8:40pm 22 4 G 5 59° 44% - - 38° 68.1° 50.3° - - -
3/28 8:30pm 20 3 G 5 60° 45% - - 38° 68.1° 50.3° - - -
3/28 8:20pm 28 3 G 5 60° 46% - - 39° 68.1° 50.3° - - -
3/28 8:10pm 69 2 G 4 61° 51% - - 43° 68.1° 50.3° - - -
3/28 8:00pm 40 2 G 3 60° 52% - - 43° 68.1° 50.3° - - -
3/28 7:50pm 35 2 G 4 60° 53% - - 43° 68.1° 50.3° - - -
3/28 7:40pm 22 3 G 4 60° 51% - - 42° 68.1° 50.3° - - -
3/28 7:30pm 12 1 G 4 61° 50% - - 42° 68.1° 50.3° - - -
3/28 7:20pm 326 1 G 3 62° 49% - - 42° 68.1° 50.3° - - -
3/28 7:10pm 235 2 G 3 62° 48% - - 42° 68.1° 50.3° - - -
3/28 7:00pm 287 4 G 5 63° 47% - - 42° 68.1° 50.3° - - -
3/28 6:50pm 304 4 G 7 63° 45% - - 42° 68.1° 50.3° - - -
3/28 6:40pm 298 6 G 8 63° 44% - - 41° 68.1° 50.3° - - -
3/28 6:30pm 294 8 G 11 64° 44% - - 42° 68.1° 50.3° - - -
3/28 6:20pm 290 7 G 10 64° 44% - - 42° 68.1° 50.3° - - -
3/28 6:10pm 282 7 G 10 64° 44% - - 42° 68.1° 50.3° - - -
3/28 6:00pm 285 6 G 12 65° 41% - - 40° 68.1° 50.3° - - -
3/28 5:50pm 284 7 G 11 65° 42% - - 41° 68.1° 50.3° - - -
3/28 5:40pm 286 9 G 16 65° 45% - - 43° 68.1° 50.3° - - -
3/28 5:30pm 294 11 G 16 64° 45% - - 42° 68.1° 50.3° - - -
3/28 5:20pm 288 11 G 16 64° 42% - - 41° 68.1° 50.3° - - -
3/28 5:10pm 276 9 G 13 64° 41% - - 40° 68.1° 50.3° - - -
3/28 5:00pm 282 10 G 16 65° 41% - - 41° 68.1° 50.3° - - -
3/28 4:50pm 278 11 G 16 64° 44% - - 42° 68.1° 50.3° - - -
3/28 4:40pm 275 10 G 15 65° 44% - - 43° 68.1° 50.3° - - -
3/28 4:30pm 284 9 G 14 66° 44% - - 43° 68.1° 50.3° - - -
3/28 4:20pm 274 8 G 15 66° 42% - - 42° 68.1° 50.3° - - -
3/28 4:10pm 276 10 G 15 65° 43% - - 42° 68.1° 50.3° - - -
3/28 4:00pm 290 10 G 15 66° 41% - - 42° 68.1° 50.3° - - -
3/28 3:50pm 292 10 G 17 66° 46% - - 45° 68.1° 50.3° - - -
3/28 3:40pm 288 9 G 13 67° 44% - - 44° 68.1° 50.3° - - -
3/28 3:30pm 275 8 G 13 67° 43% - - 44° 68.1° 50.3° - - -
3/28 3:20pm 279 8 G 13 66° 48% - - 46° 68.1° 50.3° - - -
3/28 3:10pm 268 8 G 14 67° 50% - - 47° 68.1° 50.3° - - -
3/28 3:00pm 273 7 G 12 67° 46% - - 46° 68.1° 50.3° - - -
3/28 2:50pm 255 7 G 12 67° 48% - - 47° 68.1° 50.3° - - -
3/28 2:40pm 281 8 G 12 67° 46% - - 46° 68.1° 50.3° - - -
3/28 2:30pm 288 7 G 12 67° 48% - - 47° 68.1° 50.3° - - -
3/28 2:20pm 294 7 G 12 67° 50% - - 48° 67.9° 50.3° - - -
3/28 2:10pm 286 6 G 10 66° 53% - - 49° 67.7° 50.3° - - -
3/28 2:00pm 287 6 G 12 66° 55% - - 50° 67.6° 50.3° - - -
3/28 1:50pm 284 7 G 12 66° 55% - - 49° 66.8° 50.3° - - -
3/28 1:40pm 281 7 G 12 66° 58% - - 50° 66.8° 50.3° - - -
3/28 1:30pm 285 8 G 14 65° 59% - - 50° 66.8° 50.3° - - -
3/28 1:20pm 293 9 G 13 65° 56% - - 49° 66.8° 50.3° - - -
3/28 1:10pm 277 8 G 13 65° 55% - - 49° 66.8° 50.3° - - -
3/28 1:00pm 301 8 G 13 65° 54% - - 48° 66.8° 50.3° - - -
3/28 12:50pm 294 7 G 12 65° 56% - - 49° 66.8° 50.3° - - -
3/28 12:40pm 274 8 G 13 65° 57% - - 49° 66.8° 50.3° - - -
3/28 12:30pm 274 8 G 13 65° 52% - - 47° 66.8° 50.3° - - -
3/28 12:20pm 292 7 G 12 66° 50% - - 46° 66.8° 50.3° - - -
3/28 12:10pm 281 6 G 12 65° 53% - - 48° 66.5° 50.3° - - -
3/28 12:00pm 286 8 G 13 64° 57% - - 49° 66.5° 50.3° - - -
3/28 11:50am 276 7 G 12 64° 58% - - 50° 66.5° 50.3° - - -
3/28 11:40am 268 7 G 13 65° 57% - - 49° 66.5° 50.3° - - -
3/28 11:30am 270 7 G 11 65° 54% - - 48° 66.4° 50.3° - - -
3/28 11:20am 279 7 G 11 65° 49% - - 46° 65.9° 50.3° - - -
3/28 11:10am 251 5 G 12 64° 52% - - 47° 65.5° 50.3° - - -
3/28 11:00am 276 6 G 11 64° 52% - - 46° 64.9° 50.3° - - -
3/28 10:50am 302 8 G 14 64° 51% - - 45° 64.7° 50.3° - - -
3/28 10:40am 307 7 G 11 63° 55% - - 47° 64° 50.3° - - -
3/28 10:30am 306 7 G 10 62° 58% - - 47° 62.5° 50.3° - - -
3/28 10:20am 306 6 G 10 61° 60% - - 47° 62.3° 50.3° - - -
3/28 10:10am 265 4 G 8 61° 62% - - 48° 61.5° 50.3° - - -
3/28 10:00am 271 6 G 10 61° 61% - - 47° 61.5° 50.3° - - -
3/28 9:50am 304 6 G 9 59° 64% - - 47° 60.4° 50.3° - - -
3/28 9:40am 291 5 G 10 59° 68% - - 48° 59.4° 50.3° - - -
3/28 9:30am 289 5 G 7 59° 65% - - 47° 59.4° 50.3° - - -
3/28 9:20am 289 6 G 9 58° 65% - - 47° 58.8° 50.3° - - -
3/28 9:10am 301 5 G 7 58° 68% - - 47° 58.7° 50.3° - - -
3/28 9:00am 311 5 G 8 57° 68% - - 47° 57.8° 50.3° - - -
3/28 8:50am 336 3 G 6 57° 71% - - 48° 57.8° 50.3° - - -
3/28 8:40am 346 2 G 4 56° 75% - - 49° 56.9° 50.3° - - -
3/28 8:30am 329 1 G 2 56° 79% - - 50° 56.6° 50.3° - - -
3/28 8:20am 90 1 G 3 56° 82% - - 50° 56.6° 50.3° - - -
3/28 8:10am 207 2 G 5 54° 83% - - 49° 54.9° 50.3° - - -
3/28 8:00am 1 7 G 11 54° 84% - - 49° 54.9° 50.3° - - -
3/28 7:50am 12 5 G 10 53° 88% - - 49° 54.9° 50.3° - - -
3/28 7:40am 93 3 G 4 51° 94% - - 49° 54.9° 50.3° - - -
3/28 7:30am 125 4 G 5 51° 93% - - 49° 54.9° 50.3° - - -
3/28 7:20am 71 4 G 7 51° 92% - - 49° 54.9° 50.5° - - -
3/28 7:10am 79 4 G 6 52° 93% - - 50° 54.9° 50.5° - - -
3/28 7:00am 113 3 G 5 51° 93% - - 49° 54.9° 50.5° - - -
3/28 6:50am 354 4 G 11 51° 93% - - 50° 54.9° 50.5° - - -
3/28 6:40am 20 7 G 11 52° 91% - - 49° 54.9° 50.5° - - -
3/28 6:30am 30 5 G 7 53° 91% - - 50° 54.9° 50.7° - - -
3/28 6:20am 34 3 G 4 52° 93% - - 50° 54.9° 50.7° - - -
3/28 6:10am 38 2 G 4 52° 94% - - 50° 54.9° 50.7° - - -
3/28 6:00am 62 4 G 5 51° 95% - - 50° 54.9° 50.7° - - -